Hlavní strana
METAR-TAF:

METAR-TAF

Letiště :

Tripolis, Libye

Mitiga International Airport

zeměpisná šířka: 32-54N, zeměpisná délka: 13-17E, výška: 11 m

Aktuální stav počasí

Zpráva byla vytvořena před 1 hodinou a 3 minutami, v 20:50 UTC
Západojihozápadní vítr 3 kt
Teplota 14°C
Vlhkost vzduchu 77%
Tlak 1021 hPa
Viditelnost: 6000 m

METAR: HLLM 222050Z 24003KT 6000 NSC 14/10 Q1021

Čas: 23:53 (21:53 UTC)

Předpověď počasí

Zpráva byla vytvořena před 16 hodinami a 53 minutami, v 05:00 UTC
Předpověď platná od 22 v 06 UTC do 23 v 06 UTC
Západojihozápadní vítr 10 kt
Viditelnost: 8000 m
Polojasno ve výšce 2500 ft

TAF: HLLM 220500Z 2206/2306 27015KT 8000 SCT025 BECMG2212/2214 34015KT BECMG2218/2220 24010KT

Stav a předpovědi počasí z více než 4 000 letišť (zprávy METAR a TAF).

Červené a žluté tečky na mapě představují dostupné meteorologické stanice.

Když kurzor umístíte na tečku, zobrazí se název stanice.

Pak kliknutím zobrazíte stav a předpověď počasí.

Chcete-li změnit mapu, kliknutím na zelené tlačítko se znaménkem +mapu přiblížíte, kliknutím na zelené tlačítko se znaménkem – mapu oddálíte a kliknutím na zelené šipky přejdete na sousední mapy.


METAR-TAF: